Time;durP1;ratioP1;P1;durP2;ratioP2;P2;SDS_P1;SDS_P2;PMS_P1;PMS_P2;Temp;Humidity;BMP_temperature;BMP_pressure;BME280_temperature;BME280_humidity;BME280_pressure;Samples;Min_cycle;Max_cycle;Signal;HPM_P1;HPM_P2
2023/08/27 00:00:31;;;;;;;0.50;0.50;;;;;;;13.05;100.00;98894.63;5051669;28;20511;-83
2023/08/27 00:02:59;;;;;;;0.40;0.40;;;;;;;12.98;100.00;98890.25;5033739;28;20059;-83
2023/08/27 00:05:26;;;;;;;0.40;0.40;;;;;;;12.96;100.00;98887.00;5051671;28;20077;-83
2023/08/27 00:07:53;;;;;;;0.45;0.45;;;;;;;13.00;100.00;98893.50;5051346;28;20131;-83
2023/08/27 00:10:21;;;;;;;0.40;0.40;;;;;;;13.10;100.00;98897.34;5051409;28;20539;-83
2023/08/27 00:12:48;;;;;;;0.50;0.50;;;;;;;13.11;100.00;98901.69;5051149;28;20136;-83
2023/08/27 00:15:15;;;;;;;0.40;0.40;;;;;;;13.13;100.00;98899.53;5051505;28;20064;-83
2023/08/27 00:17:43;;;;;;;0.40;0.40;;;;;;;13.14;100.00;98898.44;5050241;28;20064;-83
2023/08/27 00:20:10;;;;;;;0.40;0.40;;;;;;;13.14;100.00;98890.31;5033492;28;20049;-83
2023/08/27 00:22:37;;;;;;;0.40;0.40;;;;;;;13.10;100.00;98886.53;5033984;28;20053;-82
2023/08/27 00:25:05;;;;;;;0.43;0.43;;;;;;;13.07;100.00;98882.44;5032977;28;20055;-83
2023/08/27 00:27:33;;;;;;;0.50;0.50;;;;;;;13.03;100.00;98881.34;5050735;28;20518;-83
2023/08/27 00:30:05;;;;;;;0.40;0.40;;;;;;;13.10;100.00;98886.53;5017364;28;20049;-83
2023/08/27 00:32:33;;;;;;;0.40;0.40;;;;;;;13.09;100.00;98891.13;5033583;28;20040;-82
2023/08/27 00:35:03;;;;;;;0.50;0.50;;;;;;;13.07;100.00;98881.63;5050905;28;20045;-83
2023/08/27 00:37:31;;;;;;;0.50;0.50;;;;;;;12.91;100.00;98862.59;5033307;28;20048;-83
2023/08/27 00:39:59;;;;;;;0.50;0.50;;;;;;;12.95;100.00;98863.69;5050809;28;20072;-83
2023/08/27 00:42:26;;;;;;;0.50;0.50;;;;;;;13.01;100.00;98868.06;5016971;28;20191;-83
2023/08/27 00:44:53;;;;;;;0.50;0.50;;;;;;;12.97;100.00;98858.84;5032913;28;20049;-83
2023/08/27 00:47:21;;;;;;;0.40;0.40;;;;;;;12.97;100.00;98866.94;5016811;28;20479;-82
2023/08/27 00:49:49;;;;;;;0.40;0.40;;;;;;;13.04;100.00;98874.84;5033091;28;20458;-84
2023/08/27 00:52:17;;;;;;;0.50;0.50;;;;;;;13.06;100.00;98872.66;5018762;28;20045;-83
2023/08/27 00:54:45;;;;;;;0.45;0.45;;;;;;;13.00;100.00;98865.63;5009925;28;20045;-83
2023/08/27 00:57:13;;;;;;;0.50;0.50;;;;;;;13.01;100.00;98865.38;5033224;28;20052;-83
2023/08/27 00:59:41;;;;;;;0.47;0.47;;;;;;;12.95;100.00;98849.34;5033027;28;20080;-83
2023/08/27 01:02:09;;;;;;;0.47;0.47;;;;;;;13.08;100.00;98861.59;5050011;28;20546;-83
2023/08/27 01:04:36;;;;;;;0.50;0.50;;;;;;;13.13;100.00;98851.56;5016479;28;20682;-83
2023/08/27 01:07:12;;;;;;;0.50;0.50;;;;;;;13.10;100.00;98846.69;5032733;28;20048;-84
2023/08/27 01:09:45;;;;;;;0.40;0.40;;;;;;;13.11;100.00;98844.78;5032842;28;20057;-83
2023/08/27 01:12:15;;;;;;;0.40;0.40;;;;;;;13.14;100.00;98847.81;5007522;28;20089;-83
2023/08/27 01:14:43;;;;;;;0.50;0.50;;;;;;;13.18;100.00;98848.06;5013633;28;20049;-83
2023/08/27 01:17:10;;;;;;;0.45;0.45;;;;;;;13.20;100.00;98856.75;5013132;28;20049;-82
2023/08/27 01:19:38;;;;;;;0.50;0.50;;;;;;;13.19;100.00;98844.28;5012864;28;20057;-83
2023/08/27 01:22:05;;;;;;;0.40;0.40;;;;;;;13.21;100.00;98842.94;5012779;28;20558;-83
2023/08/27 01:24:32;;;;;;;0.40;0.40;;;;;;;13.27;100.00;98841.09;5013176;28;20045;-84
2023/08/27 01:27:24;;;;;;;0.40;0.40;;;;;;;13.28;100.00;98842.72;5012684;28;20041;-83
2023/08/27 01:30:02;;;;;;;0.40;0.40;;;;;;;13.27;100.00;98841.09;4996084;28;20045;-83
2023/08/27 01:32:56;;;;;;;0.50;0.50;;;;;;;13.36;100.00;98852.22;4997498;28;20049;-82
2023/08/27 01:35:24;;;;;;;0.40;0.40;;;;;;;13.31;100.00;98839.47;5013398;28;20053;-83
2023/08/27 01:37:51;;;;;;;0.50;0.50;;;;;;;13.37;100.00;98843.84;5012322;28;20050;-83
2023/08/27 01:40:19;;;;;;;0.45;0.45;;;;;;;13.40;100.00;98840.59;4996687;28;20049;-83
2023/08/27 01:42:47;;;;;;;0.50;0.50;;;;;;;13.39;100.00;98840.84;5028756;28;20053;-83
2023/08/27 01:45:17;;;;;;;0.43;0.43;;;;;;;13.37;100.00;98833.00;5050013;28;20051;-83
2023/08/27 01:47:44;;;;;;;0.40;0.40;;;;;;;13.36;100.00;98834.06;5032765;28;20053;-83
2023/08/27 01:50:11;;;;;;;0.50;0.50;;;;;;;13.39;100.00;98836.28;5050067;28;20537;-83
2023/08/27 01:52:39;;;;;;;0.40;0.40;;;;;;;13.37;100.00;98832.19;5032388;28;20053;-83
2023/08/27 01:55:07;;;;;;;0.40;0.40;;;;;;;13.37;100.00;98841.13;5049891;28;20393;-82
2023/08/27 01:57:35;;;;;;;0.50;0.50;;;;;;;13.39;100.00;98847.09;5015898;28;20053;-83
2023/08/27 02:00:08;;;;;;;0.40;0.40;;;;;;;13.43;100.00;98845.47;5032016;28;20083;-83
2023/08/27 02:02:41;;;;;;;0.38;0.38;;;;;;;13.46;100.00;98846.84;5050269;28;20072;-83
2023/08/27 02:05:09;;;;;;;0.50;0.50;;;;;;;13.51;100.00;98854.19;5031946;28;20149;-83
2023/08/27 02:07:37;;;;;;;0.40;0.40;;;;;;;13.40;100.00;98843.31;5032182;28;20645;-82
2023/08/27 02:10:06;;;;;;;0.40;0.40;;;;;;;13.48;100.00;98857.44;5028412;28;20111;-83
2023/08/27 02:12:37;;;;;;;0.50;0.50;;;;;;;13.40;100.00;98848.72;5031314;28;20052;-83
2023/08/27 02:15:07;;;;;;;0.50;0.50;;;;;;;13.43;100.00;98845.47;5049616;28;20643;-83
2023/08/27 02:17:35;;;;;;;0.40;0.40;;;;;;;13.53;100.00;98854.72;5015401;28;20144;-83
2023/08/27 02:20:06;;;;;;;0.40;0.40;;;;;;;13.46;100.00;98851.44;5015287;28;20486;-83
2023/08/27 02:22:35;;;;;;;0.40;0.40;;;;;;;13.56;100.00;98860.41;5032020;28;20073;-82
2023/08/27 02:25:05;;;;;;;0.40;0.40;;;;;;;13.57;100.00;98861.22;5031747;28;20389;-83
2023/08/27 02:27:32;;;;;;;0.40;0.40;;;;;;;13.58;100.00;98850.13;5032470;28;20067;-83
2023/08/27 02:30:00;;;;;;;0.40;0.40;;;;;;;13.64;100.00;98869.94;5031555;28;20068;-83
2023/08/27 02:32:31;;;;;;;0.40;0.40;;;;;;;13.65;100.00;98849.88;5032434;28;20053;-82
2023/08/27 02:34:59;;;;;;;0.40;0.40;;;;;;;13.52;100.00;98844.94;5031782;28;20045;-84
2023/08/27 02:37:26;;;;;;;0.50;0.50;;;;;;;13.58;100.00;98850.13;5032010;28;20139;-82
2023/08/27 02:39:53;;;;;;;0.50;0.50;;;;;;;13.63;100.00;98843.91;5031890;28;20159;-83
2023/08/27 02:42:22;;;;;;;0.40;0.40;;;;;;;13.67;100.00;98850.41;5052999;28;20053;-82
2023/08/27 02:44:49;;;;;;;0.40;0.40;;;;;;;13.62;100.00;98851.22;5053066;28;20095;-83
2023/08/27 02:47:17;;;;;;;0.40;0.40;;;;;;;13.64;100.00;98846.34;5035550;28;20463;-83
2023/08/27 02:49:44;;;;;;;0.50;0.50;;;;;;;13.68;100.00;98841.19;5052928;28;20045;-83
2023/08/27 02:52:11;;;;;;;0.50;0.50;;;;;;;13.74;100.00;98845.53;5053164;28;20056;-83
2023/08/27 02:54:38;;;;;;;0.50;0.50;;;;;;;13.78;100.00;98848.53;5035622;28;20476;-84
2023/08/27 02:57:05;;;;;;;0.50;0.50;;;;;;;13.77;100.00;98839.56;5035082;28;20052;-83
2023/08/27 02:59:33;;;;;;;0.40;0.40;;;;;;;13.82;100.00;98844.19;5019100;28;20513;-83
2023/08/27 03:02:00;;;;;;;0.40;0.40;;;;;;;13.81;100.00;98854.22;5034951;28;20091;-83
2023/08/27 03:04:27;;;;;;;0.40;0.40;;;;;;;13.81;100.00;98854.22;5035502;28;20076;-83
2023/08/27 03:06:55;;;;;;;0.40;0.40;;;;;;;13.81;100.00;98843.38;5034717;28;20056;-83
2023/08/27 03:09:24;;;;;;;0.40;0.40;;;;;;;13.80;100.00;98841.78;5034914;28;20061;-84
2023/08/27 03:11:51;;;;;;;0.40;0.40;;;;;;;13.74;100.00;98826.56;5035002;28;20392;-83
2023/08/27 03:14:18;;;;;;;0.40;0.40;;;;;;;13.83;100.00;98852.06;5053218;28;20135;-83
2023/08/27 03:16:45;;;;;;;0.40;0.40;;;;;;;13.83;100.00;98843.94;5052597;28;20144;-82
2023/08/27 03:19:12;;;;;;;0.50;0.50;;;;;;;13.79;100.00;98848.25;5052640;28;20045;-83
2023/08/27 03:21:40;;;;;;;0.40;0.40;;;;;;;13.83;100.00;98835.00;5034882;28;20049;-83
2023/08/27 03:24:07;;;;;;;0.50;0.50;;;;;;;13.87;100.00;98849.63;5034667;28;20044;-82
2023/08/27 03:26:36;;;;;;;0.50;0.50;;;;;;;13.85;100.00;98844.50;5002582;28;20076;-84
2023/08/27 03:29:03;;;;;;;0.45;0.45;;;;;;;13.90;100.00;98834.72;5052082;28;20045;-83
2023/08/27 03:31:32;;;;;;;0.40;0.40;;;;;;;13.92;100.00;98846.09;5034511;28;20048;-84
2023/08/27 03:33:59;;;;;;;0.40;0.40;;;;;;;13.91;100.00;98837.16;5034463;28;20053;-83
2023/08/27 03:36:28;;;;;;;0.40;0.40;;;;;;;13.95;100.00;98837.41;5034432;28;20076;-82
2023/08/27 03:38:55;;;;;;;0.50;0.50;;;;;;;13.88;100.00;98816.00;5033916;28;20040;-83
2023/08/27 03:41:22;;;;;;;0.45;0.45;;;;;;;13.91;100.00;98812.75;5052079;28;20131;-83
2023/08/27 03:43:50;;;;;;;0.40;0.40;;;;;;;14.00;100.00;98830.13;5034173;28;20052;-82
2023/08/27 03:46:17;;;;;;;0.50;0.50;;;;;;;13.87;100.00;98812.47;5033895;28;20079;-83
2023/08/27 03:48:44;;;;;;;0.40;0.40;;;;;;;13.93;100.00;98812.50;5052060;28;20461;-82
2023/08/27 03:51:11;;;;;;;0.40;0.40;;;;;;;13.90;100.00;98815.72;5033793;28;20045;-84
2023/08/27 03:53:39;;;;;;;0.40;0.40;;;;;;;13.96;100.00;98814.66;5034180;28;20057;-82
2023/08/27 03:56:06;;;;;;;0.50;0.50;;;;;;;13.88;100.00;98800.53;5051581;28;20056;-82
2023/08/27 03:58:33;;;;;;;0.40;0.40;;;;;;;14.03;100.00;98828.75;5017243;28;20056;-82
2023/08/27 04:01:01;;;;;;;0.40;0.40;;;;;;;14.07;100.00;98832.53;5017650;28;20106;-82
2023/08/27 04:03:29;;;;;;;0.40;0.40;;;;;;;14.08;100.00;98831.47;5034165;28;20053;-83
2023/08/27 04:05:57;;;;;;;0.40;0.40;;;;;;;13.98;100.00;98801.63;5051313;28;20049;-82
2023/08/27 04:08:24;;;;;;;0.40;0.40;;;;;;;14.08;100.00;98804.34;5051735;28;20103;-82
2023/08/27 04:10:52;;;;;;;0.43;0.43;;;;;;;14.11;100.00;98803.78;5051214;28;20135;-82
2023/08/27 04:13:20;;;;;;;0.40;0.40;;;;;;;14.19;100.00;98810.56;5034081;28;20478;-82
2023/08/27 04:16:06;;;;;;;0.50;0.50;;;;;;;14.24;100.00;98800.50;5034080;28;20123;-83
2023/08/27 04:18:34;;;;;;;0.50;0.50;;;;;;;14.27;100.00;98808.09;5033920;28;20045;-82
2023/08/27 04:21:03;;;;;;;0.40;0.40;;;;;;;14.30;100.00;98799.44;5051151;28;20072;-82
2023/08/27 04:23:32;;;;;;;0.50;0.50;;;;;;;14.39;100.00;98798.88;5051466;28;20589;-82
2023/08/27 04:26:02;;;;;;;0.40;0.40;;;;;;;14.38;100.00;98789.09;5051075;28;20053;-83
2023/08/27 04:28:31;;;;;;;0.45;0.45;;;;;;;14.36;100.00;98786.66;5029382;28;20049;-83
2023/08/27 04:30:58;;;;;;;0.50;0.50;;;;;;;14.38;100.00;98780.94;5038648;28;20143;-84
2023/08/27 04:33:26;;;;;;;0.50;0.50;;;;;;;14.48;100.00;98798.03;5033290;28;20220;-85
2023/08/27 04:35:53;;;;;;;0.40;0.40;;;;;;;14.41;100.00;98802.94;5050850;28;20107;-83
2023/08/27 04:38:21;;;;;;;0.40;0.40;;;;;;;14.35;100.00;98800.50;5051409;28;20435;-84
2023/08/27 04:40:52;;;;;;;0.40;0.40;;;;;;;14.38;100.00;98797.22;5037828;28;20068;-84
2023/08/27 04:43:20;;;;;;;0.50;0.50;;;;;;;14.44;100.00;98796.16;5046698;28;20053;-84
2023/08/27 04:45:47;;;;;;;0.40;0.40;;;;;;;14.46;100.00;98808.34;5015156;28;20049;-82
2023/08/27 04:48:16;;;;;;;0.50;0.50;;;;;;;14.54;100.00;98817.06;5013456;28;20053;-83
2023/08/27 04:50:47;;;;;;;0.50;0.50;;;;;;;14.49;100.00;98817.84;5013253;28;20052;-83
2023/08/27 04:53:15;;;;;;;0.50;0.50;;;;;;;14.47;100.00;98820.03;5013567;28;20129;-83
2023/08/27 04:55:42;;;;;;;0.50;0.50;;;;;;;14.43;100.00;98827.09;5013165;28;20049;-83
2023/08/27 04:58:09;;;;;;;0.40;0.40;;;;;;;14.46;100.00;98832.78;5030479;28;20049;-82
2023/08/27 05:00:37;;;;;;;0.50;0.50;;;;;;;14.45;100.00;98811.34;5013275;28;20119;-84
2023/08/27 05:03:05;;;;;;;0.40;0.40;;;;;;;14.50;100.00;98820.28;5012762;28;20054;-84
2023/08/27 05:05:32;;;;;;;0.43;0.43;;;;;;;14.52;100.00;98818.13;5013053;28;20053;-83
2023/08/27 05:08:00;;;;;;;0.40;0.40;;;;;;;14.55;100.00;98819.50;5012794;28;20571;-83
2023/08/27 05:10:27;;;;;;;0.50;0.50;;;;;;;14.64;100.00;98822.47;5013004;28;20069;-83
2023/08/27 05:12:55;;;;;;;0.50;0.50;;;;;;;14.73;100.00;98820.81;5013093;28;20053;-84
2023/08/27 05:15:23;;;;;;;0.50;0.50;;;;;;;14.80;100.00;98831.38;5013020;28;20073;-83
2023/08/27 05:17:51;;;;;;;0.40;0.40;;;;;;;14.81;100.00;98835.72;5012898;28;20148;-83
2023/08/27 05:20:19;;;;;;;0.43;0.43;;;;;;;14.83;100.00;98828.13;5012673;28;20079;-83
2023/08/27 05:22:46;;;;;;;0.50;0.50;;;;;;;14.83;100.00;98825.41;5003728;28;20072;-83
2023/08/27 05:25:13;;;;;;;0.40;0.40;;;;;;;14.87;100.00;98837.34;5005460;28;20045;-82
2023/08/27 05:27:44;;;;;;;0.50;0.50;;;;;;;14.93;100.00;98830.78;5025123;28;20041;-82
2023/08/27 05:30:15;;;;;;;0.50;0.50;;;;;;;15.02;100.00;98812.84;5031028;28;20088;-83
2023/08/27 05:32:43;;;;;;;0.50;0.50;;;;;;;15.16;100.00;98816.56;5044795;28;20048;-82
2023/08/27 05:35:10;;;;;;;0.47;0.47;;;;;;;15.24;100.00;98825.22;5022858;28;20144;-81
2023/08/27 05:37:38;;;;;;;0.50;0.50;;;;;;;15.37;100.00;98830.06;5023104;28;20049;-82
2023/08/27 05:40:08;;;;;;;0.40;0.40;;;;;;;15.42;100.00;98835.50;5021292;28;20128;-82
2023/08/27 05:42:36;;;;;;;0.40;0.40;;;;;;;15.49;99.04;98821.56;5047328;28;20136;-83
2023/08/27 05:45:03;;;;;;;0.40;0.40;;;;;;;15.60;97.78;98826.66;5032185;28;20056;-83
2023/08/27 05:47:33;;;;;;;0.50;0.50;;;;;;;15.50;96.60;98809.59;5032461;28;20131;-83
2023/08/27 05:50:01;;;;;;;0.43;0.43;;;;;;;15.48;95.56;98807.16;5031970;28;20049;-85
2023/08/27 05:52:31;;;;;;;0.50;0.50;;;;;;;15.41;94.89;98811.28;5032629;28;20424;-83
2023/08/27 05:54:58;;;;;;;0.40;0.40;;;;;;;15.51;94.93;98833.78;5032131;28;20049;-83
2023/08/27 05:57:26;;;;;;;0.50;0.50;;;;;;;15.60;95.15;98834.81;5032063;28;20057;-85
2023/08/27 05:59:53;;;;;;;0.47;0.47;;;;;;;15.65;95.38;98819.56;5015663;28;20507;-85
2023/08/27 06:02:20;;;;;;;0.50;0.50;;;;;;;15.88;94.92;98829.78;5050001;28;20423;-84
2023/08/27 06:04:49;;;;;;;0.50;0.50;;;;;;;16.04;94.03;98822.31;5032381;28;20049;-84
2023/08/27 06:07:16;;;;;;;0.40;0.40;;;;;;;16.17;93.19;98818.09;5032041;28;20045;-85
2023/08/27 06:09:43;;;;;;;0.50;0.50;;;;;;;16.24;92.51;98816.69;5032021;28;20516;-85
2023/08/27 06:12:11;;;;;;;0.50;0.50;;;;;;;16.42;92.31;98817.88;5032020;28;20049;-85
2023/08/27 06:14:38;;;;;;;0.50;0.50;;;;;;;16.57;91.26;98835.16;5032065;28;20432;-84
2023/08/27 06:17:05;;;;;;;0.50;0.50;;;;;;;16.59;89.34;98831.06;5018239;28;20094;-85
2023/08/27 06:19:33;;;;;;;0.50;0.50;;;;;;;16.70;88.18;98839.94;5019151;28;20144;-85
2023/08/27 06:22:16;;;;;;;0.50;0.50;;;;;;;17.01;87.02;98836.88;5047344;28;20041;-86
2023/08/27 06:24:44;;;;;;;0.50;0.50;;;;;;;16.93;86.20;98832.09;5024859;28;20447;-86
2023/08/27 06:27:13;;;;;;;0.50;0.50;;;;;;;17.11;86.08;98850.41;5026105;28;20045;-86
2023/08/27 06:29:45;;;;;;;0.50;0.50;;;;;;;17.05;85.08;98844.19;5018020;28;20095;-85
2023/08/27 06:32:16;;;;;;;0.50;0.50;;;;;;;16.66;85.13;98863.38;5027500;28;20054;-85
2023/08/27 06:34:44;;;;;;;0.50;0.50;;;;;;;16.38;86.45;98862.28;5024753;28;20108;-85
2023/08/27 06:37:11;;;;;;;0.50;0.50;;;;;;;16.30;88.29;98855.56;5025712;28;20076;-84
2023/08/27 06:39:38;;;;;;;0.50;0.50;;;;;;;16.43;88.62;98846.75;5024435;28;20583;-84
2023/08/27 06:42:06;;;;;;;0.50;0.50;;;;;;;16.44;88.59;98842.91;5019185;28;20041;-82
2023/08/27 06:44:33;;;;;;;0.50;0.50;;;;;;;16.52;88.26;98843.41;5024000;28;20052;-83
2023/08/27 06:47:01;;;;;;;0.50;0.50;;;;;;;16.53;87.22;98843.09;5024675;28;20045;-84
2023/08/27 06:49:30;;;;;;;0.50;0.50;;;;;;;16.55;87.11;98851.78;5025871;28;20041;-86
2023/08/27 06:51:57;;;;;;;0.50;0.50;;;;;;;16.60;87.03;98832.66;5023986;28;20049;-85
2023/08/27 06:54:24;;;;;;;0.50;0.50;;;;;;;16.85;86.08;98847.16;5024314;28;20049;-85
2023/08/27 06:56:53;;;;;;;0.50;0.50;;;;;;;16.89;86.11;98842.78;5025854;28;20045;-84
2023/08/27 06:59:20;;;;;;;0.60;0.60;;;;;;;16.78;86.09;98814.78;5024255;28;20045;-84
2023/08/27 07:01:47;;;;;;;0.50;0.50;;;;;;;17.16;85.00;98831.25;5023835;28;20073;-84
2023/08/27 07:04:14;;;;;;;0.50;0.50;;;;;;;17.37;83.99;98844.63;5023643;28;20045;-83
2023/08/27 07:06:42;;;;;;;0.50;0.50;;;;;;;17.20;81.71;98842.41;5024406;28;20045;-83
2023/08/27 07:09:10;;;;;;;0.50;0.50;;;;;;;17.11;82.37;98855.84;5025515;28;20045;-84
2023/08/27 07:11:39;;;;;;;0.50;0.50;;;;;;;17.11;82.51;98844.94;5004443;28;20060;-84
2023/08/27 07:14:06;;;;;;;0.50;0.50;;;;;;;17.32;82.83;98835.41;5026530;28;20048;-83
2023/08/27 07:16:33;;;;;;;0.50;0.50;;;;;;;17.67;82.04;98846.94;5011891;28;20053;-89
2023/08/27 07:19:00;;;;;;;0.50;0.50;;;;;;;17.98;80.37;98832.88;5012722;28;20054;-85
2023/08/27 07:21:27;;;;;;;0.60;0.60;;;;;;;18.33;79.50;98830.63;5011570;28;20096;-87
2023/08/27 07:23:55;;;;;;;0.50;0.50;;;;;;;18.59;75.80;98833.75;5011936;28;20232;-88
2023/08/27 07:26:23;;;;;;;0.50;0.50;;;;;;;18.68;75.43;98842.84;4994962;28;20050;-86
2023/08/27 07:28:51;;;;;;;0.50;0.50;;;;;;;18.92;74.83;98839.16;5011432;28;20050;-88
2023/08/27 07:31:18;;;;;;;0.43;0.43;;;;;;;18.73;73.73;98829.09;4979100;28;20057;-86
2023/08/27 07:33:45;;;;;;;0.40;0.40;;;;;;;18.58;74.40;98843.03;5010979;28;20098;-84
2023/08/27 07:36:13;;;;;;;0.43;0.43;;;;;;;18.45;75.31;98825.50;5010694;28;20046;-89
2023/08/27 07:38:42;;;;;;;0.50;0.50;;;;;;;18.67;74.85;98822.09;4994842;28;20527;-86
2023/08/27 07:41:10;;;;;;;0.60;0.60;;;;;;;18.76;73.77;98811.28;4994649;28;20050;-85
2023/08/27 07:43:37;;;;;;;0.60;0.60;;;;;;;19.23;73.15;98812.00;5011403;28;20050;-87
2023/08/27 07:46:04;;;;;;;0.50;0.50;;;;;;;19.52;72.57;98830.78;5010806;28;20084;-87
2023/08/27 07:48:32;;;;;;;0.40;0.40;;;;;;;19.68;71.10;98834.03;5011386;28;20060;-86
2023/08/27 07:51:00;;;;;;;0.40;0.40;;;;;;;19.35;70.40;98825.16;5010764;28;20099;-87
2023/08/27 07:53:28;;;;;;;0.32;0.32;;;;;;;18.94;71.61;98813.13;5012725;28;20474;-87
2023/08/27 07:55:55;;;;;;;0.50;0.50;;;;;;;18.95;71.89;98808.47;5009515;28;20099;-88
2023/08/27 07:58:22;;;;;;;0.50;0.50;;;;;;;19.42;71.50;98818.16;5032043;28;20075;-87
2023/08/27 08:00:59;;;;;;;0.40;0.40;;;;;;;19.62;69.13;98799.63;5032159;28;20185;-88
2023/08/27 08:03:26;;;;;;;0.50;0.50;;;;;;;19.40;69.69;98798.50;5031712;28;20045;-88
2023/08/27 08:05:55;;;;;;;0.60;0.60;;;;;;;19.51;68.83;98796.31;5031457;28;20041;-88
2023/08/27 08:08:22;;;;;;;0.60;0.60;;;;;;;19.85;66.78;98793.09;5014223;28;20045;-89
2023/08/27 08:10:54;;;;;;;0.50;0.50;;;;;;;20.20;65.27;98798.78;5031454;28;20088;-88
2023/08/27 08:13:23;;;;;;;0.50;0.50;;;;;;;20.37;65.46;98797.28;5013925;28;20132;-88
2023/08/27 08:15:50;;;;;;;0.50;0.50;;;;;;;20.90;63.73;98808.19;5031742;28;20046;-90
2023/08/27 08:18:17;;;;;;;0.50;0.50;;;;;;;21.46;61.89;98805.78;5031614;28;20053;-89
2023/08/27 08:20:45;;;;;;;0.50;0.50;;;;;;;21.73;59.90;98798.38;5031946;28;20077;-89
2023/08/27 08:23:13;;;;;;;0.50;0.50;;;;;;;22.03;59.37;98782.84;5032344;28;20099;-89
2023/08/27 08:25:43;;;;;;;0.40;0.40;;;;;;;21.77;59.30;98785.59;5032478;28;20085;-89
2023/08/27 08:28:10;;;;;;;0.50;0.50;;;;;;;21.60;59.80;98795.47;5031818;28;20041;-88
2023/08/27 08:30:43;;;;;;;0.55;0.55;;;;;;;21.87;59.34;98782.50;5031615;28;20083;-89
2023/08/27 08:33:10;;;;;;;0.60;0.60;;;;;;;22.14;58.03;98775.06;5031494;28;20574;-88
2023/08/27 08:35:38;;;;;;;0.60;0.60;;;;;;;22.66;56.84;98791.41;5031733;28;20111;-88
2023/08/27 08:38:05;;;;;;;0.50;0.50;;;;;;;22.85;55.73;98788.25;5030143;28;20049;-88
2023/08/27 08:41:00;;;;;;;0.40;0.40;;;;;;;22.75;56.08;98789.44;5013231;28;20132;-89
2023/08/27 08:43:51;;;;;;;0.30;0.30;;;;;;;21.88;57.89;98794.31;5013242;28;20049;-89
2023/08/27 08:46:20;;;;;;;0.30;0.30;;;;;;;20.59;61.66;98794.53;5019007;28;20052;-88
2023/08/27 08:48:50;;;;;;;0.40;0.40;;;;;;;20.01;63.44;98795.47;5013717;28;20052;-88
2023/08/27 08:51:24;;;;;;;0.40;0.40;;;;;;;19.62;65.00;98785.94;4997959;28;20045;-90
2023/08/27 08:53:55;;;;;;;0.60;0.60;;;;;;;20.87;61.12;98795.13;4982007;28;20045;-88
2023/08/27 08:56:49;;;;;;;0.60;0.60;;;;;;;22.11;56.91;98787.50;4981150;28;20052;-89
2023/08/27 08:59:16;;;;;;;0.60;0.60;;;;;;;23.02;53.98;98795.66;5013014;28;20060;-89
2023/08/27 09:01:44;;;;;;;0.60;0.60;;;;;;;23.57;52.81;98797.38;5013447;28;20056;-90
2023/08/27 09:04:13;;;;;;;0.60;0.60;;;;;;;24.17;52.43;98800.78;5013017;28;20065;-88
2023/08/27 09:06:42;;;;;;;0.60;0.60;;;;;;;24.84;51.24;98798.78;4996756;28;20091;-89
2023/08/27 09:09:10;;;;;;;0.60;0.60;;;;;;;24.88;49.58;98805.19;5012740;28;20435;-88
2023/08/27 09:11:38;;;;;;;0.60;0.60;;;;;;;24.64;49.33;98781.97;5030560;28;20049;-88
2023/08/27 09:14:06;;;;;;;0.30;0.30;;;;;;;24.19;50.61;98796.53;5030257;28;20053;-88
2023/08/27 09:16:34;;;;;;;0.60;0.60;;;;;;;23.68;52.88;98797.81;5030586;28;20428;-88
2023/08/27 09:19:01;;;;;;;0.60;0.60;;;;;;;24.40;51.87;98779.13;5030136;28;20059;-88
2023/08/27 09:21:29;;;;;;;0.60;0.60;;;;;;;24.99;49.22;98794.50;5030434;28;20073;-89
2023/08/27 09:23:57;;;;;;;0.60;0.60;;;;;;;25.93;47.24;98796.22;5030474;28;20054;-89
2023/08/27 09:26:25;;;;;;;0.60;0.60;;;;;;;25.58;46.86;98793.19;5030211;28;20045;-88
2023/08/27 09:28:52;;;;;;;0.60;0.60;;;;;;;25.12;47.82;98784.25;5012688;28;20135;-86
2023/08/27 09:31:42;;;;;;;0.60;0.60;;;;;;;25.06;47.61;98775.41;5030021;28;20060;-89
2023/08/27 09:34:13;;;;;;;0.50;0.50;;;;;;;25.14;47.25;98776.44;4979870;28;20049;-88
2023/08/27 09:36:43;;;;;;;0.60;0.60;;;;;;;24.80;47.16;98767.47;4964124;28;20077;-87
2023/08/27 09:40:46;;;;;;;0.60;0.60;;;;;;;26.09;45.50;98774.13;4978462;28;20069;-89
2023/08/27 09:45:27;;;;;;;0.30;0.30;;;;;;;23.91;49.70;98762.47;4912282;29;20059;-89
2023/08/27 09:47:57;;;;;;;0.60;0.60;;;;;;;24.22;49.23;98756.47;4896141;29;20056;-89
2023/08/27 09:50:27;;;;;;;0.60;0.60;;;;;;;25.08;47.81;98759.31;4913423;29;20056;-88
2023/08/27 09:53:13;;;;;;;0.40;0.40;;;;;;;25.51;45.55;98753.13;4915227;29;20054;-89
2023/08/27 09:55:40;;;;;;;0.60;0.60;;;;;;;24.60;46.56;98720.34;4915546;29;20079;-89
2023/08/27 09:58:09;;;;;;;0.60;0.60;;;;;;;25.42;45.07;98749.72;4927736;29;20088;-89
2023/08/27 10:00:36;;;;;;;0.60;0.60;;;;;;;25.40;44.01;98743.75;4934546;29;20138;-89
2023/08/27 10:03:05;;;;;;;0.40;0.40;;;;;;;25.23;44.81;98731.00;4934071;29;20051;-88
2023/08/27 10:05:33;;;;;;;0.60;0.60;;;;;;;26.30;43.83;98732.41;4918689;29;20391;-89
2023/08/27 10:08:05;;;;;;;0.60;0.60;;;;;;;26.75;43.12;98726.44;4934270;29;20557;-88
2023/08/27 10:10:34;;;;;;;0.30;0.30;;;;;;;25.93;44.28;98738.97;4944019;29;20062;-89
2023/08/27 10:13:01;;;;;;;0.60;0.60;;;;;;;25.21;46.08;98724.22;4953136;29;20137;-89
2023/08/27 10:15:29;;;;;;;0.60;0.60;;;;;;;26.32;43.81;98739.19;5015037;28;20072;-89
2023/08/27 10:17:57;;;;;;;0.50;0.50;;;;;;;26.35;43.72;98738.47;5033878;28;20056;-89
2023/08/27 10:20:25;;;;;;;0.60;0.60;;;;;;;27.09;42.29;98746.19;5016461;28;20443;-86
2023/08/27 10:22:52;;;;;;;0.60;0.60;;;;;;;27.37;41.24;98731.41;5033380;28;20527;-88
2023/08/27 10:25:19;;;;;;;0.60;0.60;;;;;;;27.78;41.01;98740.19;5015926;28;20045;-87
2023/08/27 10:27:49;;;;;;;0.30;0.30;;;;;;;25.99;44.32;98747.00;5016567;28;20541;-89
2023/08/27 10:30:18;;;;;;;0.60;0.60;;;;;;;25.36;45.04;98736.50;5033450;28;20053;-87
2023/08/27 10:32:46;;;;;;;0.30;0.30;;;;;;;24.59;46.23;98729.78;5033917;28;20049;-88
2023/08/27 10:35:14;;;;;;;0.30;0.30;;;;;;;25.86;44.54;98735.19;5017377;28;20046;-89
2023/08/27 10:37:44;;;;;;;0.60;0.60;;;;;;;26.80;43.02;98698.50;5040116;28;20029;-89
2023/08/27 10:40:12;;;;;;;0.70;0.70;;;;;;;26.51;41.82;98719.13;5039752;28;20068;-90
2023/08/27 10:42:39;;;;;;;0.60;0.60;;;;;;;26.31;42.78;98728.50;5047520;28;20436;-89
2023/08/27 10:45:10;;;;;;;0.45;0.45;;;;;;;26.69;43.15;98729.88;5033049;28;20049;-89
2023/08/27 10:47:38;;;;;;;0.30;0.30;;;;;;;26.51;43.60;98712.78;5032988;28;20057;-90
2023/08/27 10:50:06;;;;;;;0.60;0.60;;;;;;;27.58;42.25;98731.09;5032824;28;20104;-90
2023/08/27 10:52:50;;;;;;;0.70;0.70;;;;;;;28.96;39.95;98726.41;5015405;28;20100;-89
2023/08/27 10:55:22;;;;;;;0.60;0.60;;;;;;;29.59;37.80;98719.34;5032881;28;20045;-89
2023/08/27 10:57:49;;;;;;;0.30;0.30;;;;;;;27.99;39.95;98706.56;4999959;28;20052;-89
2023/08/27 11:00:17;;;;;;;0.30;0.30;;;;;;;26.44;42.56;98723.69;4998719;28;20141;-89
2023/08/27 11:03:20;;;;;;;0.30;0.30;;;;;;;25.49;44.12;98724.25;5014058;28;20056;-89
2023/08/27 11:06:10;;;;;;;0.30;0.30;;;;;;;25.37;44.15;98718.75;4971268;28;20047;-89
2023/08/27 11:08:40;;;;;;;0.30;0.30;;;;;;;24.93;45.39;98716.66;4955342;28;20051;-90
2023/08/27 11:11:13;;;;;;;0.40;0.40;;;;;;;25.27;45.13;98731.94;4971837;28;20059;-90
2023/08/27 11:13:46;;;;;;;0.30;0.30;;;;;;;24.89;45.33;98724.03;4971723;28;20577;-89
2023/08/27 11:16:15;;;;;;;0.30;0.30;;;;;;;24.67;46.18;98730.00;4971257;28;20057;-91
2023/08/27 11:18:51;;;;;;;0.30;0.30;;;;;;;24.01;48.12;98712.44;4939291;28;20440;-89
2023/08/27 11:21:22;;;;;;;0.30;0.30;;;;;;;23.08;50.98;98720.00;4971080;28;20047;-90
2023/08/27 11:24:15;;;;;;;0.30;0.30;;;;;;;22.96;51.24;98730.91;4971605;28;20491;-88
2023/08/27 11:26:45;;;;;;;0.30;0.30;;;;;;;22.83;51.98;98721.75;4955343;28;20049;-90
2023/08/27 11:29:13;;;;;;;0.30;0.30;;;;;;;22.37;52.89;98710.50;4972237;28;20047;-89
2023/08/27 11:31:41;;;;;;;0.30;0.30;;;;;;;22.20;53.51;98729.78;4955600;28;20055;-89
2023/08/27 11:34:14;;;;;;;0.30;0.30;;;;;;;22.12;54.86;98727.84;4971324;28;20061;-91
2023/08/27 11:36:45;;;;;;;0.40;0.40;;;;;;;22.34;54.05;98730.41;4971736;28;20055;-89
2023/08/27 11:39:13;;;;;;;0.40;0.40;;;;;;;22.07;54.87;98720.59;4985976;28;20057;-90
2023/08/27 11:41:44;;;;;;;0.50;0.50;;;;;;;22.29;55.00;98717.63;5032289;28;20049;-88